Beira Airport


Codes: FQBR/BEW
Name: Beira Airport
City: Beira
Country: Mozambique
Elevation: 33 ft.
Wikipedia:

Photos at Beira Airport


   Photos courtesy of SpottingLog. You can add your own sightings and photos by signing up for a free trial today.



No photos found.

Weather at Beira Airport


Time (UTC)DescriptionTempratureWindCloud coverageVisibilityPressureHumidity
19-Apr-2024 03:00Light Rain25°C4 mph, SW20%10000m1015hPa94%
19-Apr-2024 06:00Light Rain25°C7 mph, S27%10000m1016hPa92%
19-Apr-2024 09:00Light Rain26°C9 mph, S35%10000m1017hPa86%
19-Apr-2024 12:00Light Rain28°C11 mph, SE30%10000m1015hPa70%
19-Apr-2024 15:00Clear Sky26°C11 mph, SE0%10000m1015hPa79%
19-Apr-2024 18:00Clear Sky25°C11 mph, E0%10000m1016hPa81%
19-Apr-2024 21:00Clear Sky25°C9 mph, SE0%10000m1016hPa77%
20-Apr-2024 00:00Clear Sky24°C4 mph, SE2%10000m1015hPa81%
20-Apr-2024 03:00Scattered Clouds23°C2 mph, SW35%10000m1015hPa87%
20-Apr-2024 06:00Light Rain25°C4 mph, SW28%10000m1016hPa79%
20-Apr-2024 09:00Light Rain27°C9 mph, S12%10000m1016hPa64%
20-Apr-2024 12:00Clear Sky28°C9 mph, SE6%10000m1013hPa60%
20-Apr-2024 15:00Clear Sky25°C9 mph, E0%10000m1013hPa71%
20-Apr-2024 18:00Clear Sky24°C9 mph, E0%10000m1015hPa74%
20-Apr-2024 21:00Clear Sky24°C7 mph, E0%10000m1015hPa75%
21-Apr-2024 00:00Clear Sky22°C2 mph, NE0%10000m1014hPa80%
21-Apr-2024 03:00Clear Sky20°C4 mph, NW2%10000m1014hPa90%
21-Apr-2024 06:00Few Clouds23°C4 mph, W11%10000m1016hPa78%
21-Apr-2024 09:00Clear Sky27°C2 mph, SE0%10000m1015hPa59%
21-Apr-2024 12:00Clear Sky27°C7 mph, SE0%10000m1013hPa57%
21-Apr-2024 15:00Clear Sky24°C7 mph, E0%10000m1013hPa72%
21-Apr-2024 18:00Clear Sky22°C7 mph, E0%10000m1014hPa76%
21-Apr-2024 21:00Clear Sky21°C7 mph, NE0%10000m1015hPa79%
22-Apr-2024 00:00Clear Sky20°C4 mph, N0%10000m1014hPa85%
22-Apr-2024 03:00Clear Sky19°C4 mph, NW1%10000m1016hPa91%
22-Apr-2024 06:00Clear Sky22°C4 mph, NW0%10000m1017hPa77%
22-Apr-2024 09:00Clear Sky27°C2 mph, SE0%10000m1016hPa59%
22-Apr-2024 12:00Clear Sky27°C7 mph, SE0%10000m1014hPa59%
22-Apr-2024 15:00Clear Sky24°C9 mph, E0%10000m1014hPa75%
22-Apr-2024 18:00Clear Sky22°C7 mph, E0%10000m1015hPa80%
22-Apr-2024 21:00Clear Sky21°C7 mph, NE0%10000m1015hPa83%
23-Apr-2024 00:00Clear Sky20°C4 mph, NE0%10000m1015hPa87%
23-Apr-2024 03:00Clear Sky19°C4 mph, NW2%10000m1016hPa92%
23-Apr-2024 06:00Clear Sky23°C2 mph, NW1%10000m1017hPa78%
23-Apr-2024 09:00Clear Sky26°C4 mph, SE0%10000m1017hPa64%
23-Apr-2024 12:00Clear Sky27°C9 mph, SE0%10000m1015hPa62%
23-Apr-2024 15:00Clear Sky24°C9 mph, SE0%10000m1015hPa73%
23-Apr-2024 18:00Clear Sky23°C7 mph, E0%10000m1016hPa81%
23-Apr-2024 21:00Clear Sky23°C7 mph, E1%10000m1017hPa79%
24-Apr-2024 00:00Few Clouds23°C2 mph, E16%10000m1016hPa79%